sensor_id;sensor_type;location;lat;lon;timestamp;P1;durP1;ratioP1;P2;durP2;ratioP2
27618;SDS011;15039;50.830;4.730;2023-06-10T00:00:42;5.53;;;3.83;;
27618;SDS011;15039;50.830;4.730;2023-06-10T00:03:08;5.05;;;3.85;;
27618;SDS011;15039;50.830;4.730;2023-06-10T00:05:34;5.68;;;4.45;;
27618;SDS011;15039;50.830;4.730;2023-06-10T00:08:01;4.50;;;4.10;;
27618;SDS011;15039;50.830;4.730;2023-06-10T00:10:32;7.95;;;3.97;;
27618;SDS011;15039;50.830;4.730;2023-06-10T00:13:05;4.97;;;4.30;;
27618;SDS011;15039;50.830;4.730;2023-06-10T00:15:33;4.70;;;4.00;;
27618;SDS011;15039;50.830;4.730;2023-06-10T00:18:00;5.72;;;4.55;;
27618;SDS011;15039;50.830;4.730;2023-06-10T00:20:27;6.47;;;4.70;;
27618;SDS011;15039;50.830;4.730;2023-06-10T00:22:53;5.97;;;4.25;;
27618;SDS011;15039;50.830;4.730;2023-06-10T00:25:19;7.78;;;4.90;;
27618;SDS011;15039;50.830;4.730;2023-06-10T00:27:48;6.50;;;4.60;;
27618;SDS011;15039;50.830;4.730;2023-06-10T00:32:39;5.28;;;4.13;;
27618;SDS011;15039;50.830;4.730;2023-06-10T00:35:05;6.03;;;3.90;;
27618;SDS011;15039;50.830;4.730;2023-06-10T00:37:32;6.13;;;4.75;;
27618;SDS011;15039;50.830;4.730;2023-06-10T00:39:59;4.38;;;3.80;;
27618;SDS011;15039;50.830;4.730;2023-06-10T00:42:25;5.10;;;4.53;;
27618;SDS011;15039;50.830;4.730;2023-06-10T00:44:51;5.40;;;4.70;;
27618;SDS011;15039;50.830;4.730;2023-06-10T00:47:17;8.60;;;4.45;;
27618;SDS011;15039;50.830;4.730;2023-06-10T00:49:43;4.80;;;4.40;;
27618;SDS011;15039;50.830;4.730;2023-06-10T00:52:10;5.90;;;4.45;;
27618;SDS011;15039;50.830;4.730;2023-06-10T00:54:37;6.07;;;4.68;;
27618;SDS011;15039;50.830;4.730;2023-06-10T00:57:03;4.25;;;3.85;;
27618;SDS011;15039;50.830;4.730;2023-06-10T00:59:30;5.07;;;4.60;;
27618;SDS011;15039;50.830;4.730;2023-06-10T01:01:57;6.80;;;4.35;;
27618;SDS011;15039;50.830;4.730;2023-06-10T01:04:23;7.32;;;4.60;;
27618;SDS011;15039;50.830;4.730;2023-06-10T01:12:05;6.00;;;4.45;;
27618;SDS011;15039;50.830;4.730;2023-06-10T01:14:35;6.47;;;4.75;;
27618;SDS011;15039;50.830;4.730;2023-06-10T01:17:03;5.60;;;4.50;;
27618;SDS011;15039;50.830;4.730;2023-06-10T01:19:29;5.07;;;4.50;;
27618;SDS011;15039;50.830;4.730;2023-06-10T01:21:56;7.13;;;4.40;;
27618;SDS011;15039;50.830;4.730;2023-06-10T01:26:51;8.63;;;4.57;;
27618;SDS011;15039;50.830;4.730;2023-06-10T01:29:22;5.32;;;4.82;;
27618;SDS011;15039;50.830;4.730;2023-06-10T01:34:43;5.10;;;4.13;;
27618;SDS011;15039;50.830;4.730;2023-06-10T01:37:11;6.25;;;4.32;;
27618;SDS011;15039;50.830;4.730;2023-06-10T01:39:40;5.47;;;4.88;;
27618;SDS011;15039;50.830;4.730;2023-06-10T01:42:08;6.63;;;4.80;;
27618;SDS011;15039;50.830;4.730;2023-06-10T01:44:35;6.75;;;4.40;;
27618;SDS011;15039;50.830;4.730;2023-06-10T01:47:00;7.28;;;4.22;;
27618;SDS011;15039;50.830;4.730;2023-06-10T01:49:26;5.30;;;4.80;;
27618;SDS011;15039;50.830;4.730;2023-06-10T01:51:53;7.07;;;5.13;;
27618;SDS011;15039;50.830;4.730;2023-06-10T01:54:19;9.82;;;5.00;;
27618;SDS011;15039;50.830;4.730;2023-06-10T01:56:44;7.05;;;5.03;;
27618;SDS011;15039;50.830;4.730;2023-06-10T01:59:10;5.43;;;4.47;;
27618;SDS011;15039;50.830;4.730;2023-06-10T02:01:36;8.98;;;4.65;;
27618;SDS011;15039;50.830;4.730;2023-06-10T02:04:01;7.43;;;5.05;;
27618;SDS011;15039;50.830;4.730;2023-06-10T02:06:27;6.43;;;4.70;;
27618;SDS011;15039;50.830;4.730;2023-06-10T02:08:52;7.97;;;5.18;;
27618;SDS011;15039;50.830;4.730;2023-06-10T02:11:18;5.65;;;5.05;;
27618;SDS011;15039;50.830;4.730;2023-06-10T02:13:44;5.60;;;5.03;;
27618;SDS011;15039;50.830;4.730;2023-06-10T02:16:09;6.22;;;5.20;;
27618;SDS011;15039;50.830;4.730;2023-06-10T02:18:38;5.97;;;5.32;;
27618;SDS011;15039;50.830;4.730;2023-06-10T02:21:05;7.03;;;5.22;;
27618;SDS011;15039;50.830;4.730;2023-06-10T02:23:32;5.50;;;4.88;;
27618;SDS011;15039;50.830;4.730;2023-06-10T02:25:57;6.15;;;5.35;;
27618;SDS011;15039;50.830;4.730;2023-06-10T02:28:23;6.75;;;5.03;;
27618;SDS011;15039;50.830;4.730;2023-06-10T02:30:48;7.82;;;5.30;;
27618;SDS011;15039;50.830;4.730;2023-06-10T02:33:14;9.77;;;5.13;;
27618;SDS011;15039;50.830;4.730;2023-06-10T02:35:40;8.82;;;5.32;;
27618;SDS011;15039;50.830;4.730;2023-06-10T02:38:06;6.22;;;5.22;;
27618;SDS011;15039;50.830;4.730;2023-06-10T02:40:32;5.88;;;5.28;;
27618;SDS011;15039;50.830;4.730;2023-06-10T02:42:58;6.18;;;5.40;;
27618;SDS011;15039;50.830;4.730;2023-06-10T02:45:24;8.20;;;5.85;;
27618;SDS011;15039;50.830;4.730;2023-06-10T02:47:50;6.07;;;5.47;;
27618;SDS011;15039;50.830;4.730;2023-06-10T02:50:15;6.18;;;5.57;;
27618;SDS011;15039;50.830;4.730;2023-06-10T02:52:41;7.93;;;5.40;;
27618;SDS011;15039;50.830;4.730;2023-06-10T02:55:07;6.30;;;5.70;;
27618;SDS011;15039;50.830;4.730;2023-06-10T02:57:32;7.53;;;5.72;;
27618;SDS011;15039;50.830;4.730;2023-06-10T02:59:58;6.35;;;5.75;;
27618;SDS011;15039;50.830;4.730;2023-06-10T03:02:24;6.07;;;5.47;;
27618;SDS011;15039;50.830;4.730;2023-06-10T03:04:56;7.50;;;5.85;;
27618;SDS011;15039;50.830;4.730;2023-06-10T03:07:22;6.75;;;6.07;;
27618;SDS011;15039;50.830;4.730;2023-06-10T03:09:48;8.30;;;6.05;;
27618;SDS011;15039;50.830;4.730;2023-06-10T03:12:15;5.85;;;5.25;;
27618;SDS011;15039;50.830;4.730;2023-06-10T03:14:41;7.95;;;5.70;;
27618;SDS011;15039;50.830;4.730;2023-06-10T03:17:06;7.15;;;6.20;;
27618;SDS011;15039;50.830;4.730;2023-06-10T03:19:33;7.78;;;5.57;;
27618;SDS011;15039;50.830;4.730;2023-06-10T03:22:09;7.18;;;5.70;;
27618;SDS011;15039;50.830;4.730;2023-06-10T03:24:36;7.57;;;6.25;;
27618;SDS011;15039;50.830;4.730;2023-06-10T03:27:06;6.43;;;5.80;;
27618;SDS011;15039;50.830;4.730;2023-06-10T03:29:36;6.88;;;5.68;;
27618;SDS011;15039;50.830;4.730;2023-06-10T03:32:03;7.47;;;5.45;;
27618;SDS011;15039;50.830;4.730;2023-06-10T03:34:29;7.05;;;6.30;;
27618;SDS011;15039;50.830;4.730;2023-06-10T03:36:55;8.57;;;6.22;;
27618;SDS011;15039;50.830;4.730;2023-06-10T03:39:21;8.98;;;6.60;;
27618;SDS011;15039;50.830;4.730;2023-06-10T03:41:48;6.95;;;6.25;;
27618;SDS011;15039;50.830;4.730;2023-06-10T03:44:14;7.85;;;6.40;;
27618;SDS011;15039;50.830;4.730;2023-06-10T03:46:40;8.10;;;6.65;;
27618;SDS011;15039;50.830;4.730;2023-06-10T03:49:05;6.80;;;6.18;;
27618;SDS011;15039;50.830;4.730;2023-06-10T03:51:31;7.55;;;6.35;;
27618;SDS011;15039;50.830;4.730;2023-06-10T03:53:57;9.30;;;6.63;;
27618;SDS011;15039;50.830;4.730;2023-06-10T03:56:22;7.82;;;6.93;;
27618;SDS011;15039;50.830;4.730;2023-06-10T03:58:48;9.52;;;6.63;;
27618;SDS011;15039;50.830;4.730;2023-06-10T04:01:14;7.53;;;6.53;;
27618;SDS011;15039;50.830;4.730;2023-06-10T04:03:39;8.00;;;6.38;;
27618;SDS011;15039;50.830;4.730;2023-06-10T04:06:06;7.40;;;6.70;;
27618;SDS011;15039;50.830;4.730;2023-06-10T04:08:32;9.13;;;6.38;;
27618;SDS011;15039;50.830;4.730;2023-06-10T04:10:58;7.50;;;6.72;;
27618;SDS011;15039;50.830;4.730;2023-06-10T04:13:24;9.95;;;6.20;;
27618;SDS011;15039;50.830;4.730;2023-06-10T04:15:49;9.10;;;6.60;;
27618;SDS011;15039;50.830;4.730;2023-06-10T04:18:16;9.75;;;6.45;;
27618;SDS011;15039;50.830;4.730;2023-06-10T04:20:41;7.65;;;5.90;;
27618;SDS011;15039;50.830;4.730;2023-06-10T04:23:09;9.32;;;6.22;;
27618;SDS011;15039;50.830;4.730;2023-06-10T04:25:35;9.80;;;6.68;;
27618;SDS011;15039;50.830;4.730;2023-06-10T04:28:00;6.93;;;6.22;;
27618;SDS011;15039;50.830;4.730;2023-06-10T04:30:26;9.35;;;6.43;;
27618;SDS011;15039;50.830;4.730;2023-06-10T04:32:51;7.15;;;6.03;;
27618;SDS011;15039;50.830;4.730;2023-06-10T04:35:17;8.55;;;6.18;;
27618;SDS011;15039;50.830;4.730;2023-06-10T04:37:43;6.28;;;5.22;;
27618;SDS011;15039;50.830;4.730;2023-06-10T04:40:08;6.95;;;6.22;;
27618;SDS011;15039;50.830;4.730;2023-06-10T04:42:35;9.57;;;5.63;;
27618;SDS011;15039;50.830;4.730;2023-06-10T04:45:01;8.40;;;6.10;;
27618;SDS011;15039;50.830;4.730;2023-06-10T04:47:28;6.95;;;5.38;;
27618;SDS011;15039;50.830;4.730;2023-06-10T04:49:57;8.43;;;5.43;;
27618;SDS011;15039;50.830;4.730;2023-06-10T04:52:24;8.75;;;5.57;;
27618;SDS011;15039;50.830;4.730;2023-06-10T04:54:49;6.90;;;5.47;;
27618;SDS011;15039;50.830;4.730;2023-06-10T04:57:16;6.10;;;5.50;;
27618;SDS011;15039;50.830;4.730;2023-06-10T04:59:41;6.63;;;5.95;;
27618;SDS011;15039;50.830;4.730;2023-06-10T05:02:07;7.38;;;5.32;;
27618;SDS011;15039;50.830;4.730;2023-06-10T05:04:33;6.20;;;5.60;;
27618;SDS011;15039;50.830;4.730;2023-06-10T05:06:58;6.70;;;5.47;;
27618;SDS011;15039;50.830;4.730;2023-06-10T05:09:24;7.63;;;5.43;;
27618;SDS011;15039;50.830;4.730;2023-06-10T05:11:51;7.25;;;5.57;;
27618;SDS011;15039;50.830;4.730;2023-06-10T05:14:18;6.93;;;5.57;;
27618;SDS011;15039;50.830;4.730;2023-06-10T05:16:45;8.05;;;5.25;;
27618;SDS011;15039;50.830;4.730;2023-06-10T05:19:12;7.63;;;5.60;;
27618;SDS011;15039;50.830;4.730;2023-06-10T05:21:38;9.50;;;5.60;;
27618;SDS011;15039;50.830;4.730;2023-06-10T05:24:03;9.55;;;5.68;;
27618;SDS011;15039;50.830;4.730;2023-06-10T05:26:29;8.75;;;5.75;;
27618;SDS011;15039;50.830;4.730;2023-06-10T05:28:56;6.38;;;5.78;;
27618;SDS011;15039;50.830;4.730;2023-06-10T05:31:22;7.85;;;6.00;;
27618;SDS011;15039;50.830;4.730;2023-06-10T05:33:48;6.65;;;5.95;;
27618;SDS011;15039;50.830;4.730;2023-06-10T05:36:13;10.30;;;6.18;;
27618;SDS011;15039;50.830;4.730;2023-06-10T05:38:39;7.07;;;5.45;;
27618;SDS011;15039;50.830;4.730;2023-06-10T05:41:04;5.95;;;5.35;;
27618;SDS011;15039;50.830;4.730;2023-06-10T05:43:30;6.18;;;5.47;;
27618;SDS011;15039;50.830;4.730;2023-06-10T05:45:56;7.07;;;6.35;;
27618;SDS011;15039;50.830;4.730;2023-06-10T05:48:21;8.38;;;5.75;;
27618;SDS011;15039;50.830;4.730;2023-06-10T05:50:47;7.75;;;6.13;;
27618;SDS011;15039;50.830;4.730;2023-06-10T05:53:14;6.90;;;5.80;;
27618;SDS011;15039;50.830;4.730;2023-06-10T05:55:43;10.00;;;5.82;;
27618;SDS011;15039;50.830;4.730;2023-06-10T05:58:10;7.65;;;6.03;;
27618;SDS011;15039;50.830;4.730;2023-06-10T06:00:39;7.72;;;5.18;;
27618;SDS011;15039;50.830;4.730;2023-06-10T06:03:08;7.65;;;5.13;;
27618;SDS011;15039;50.830;4.730;2023-06-10T06:05:34;10.45;;;5.40;;
27618;SDS011;15039;50.830;4.730;2023-06-10T06:08:02;6.80;;;5.85;;
27618;SDS011;15039;50.830;4.730;2023-06-10T06:10:31;6.63;;;5.40;;
27618;SDS011;15039;50.830;4.730;2023-06-10T06:12:56;8.55;;;5.80;;
27618;SDS011;15039;50.830;4.730;2023-06-10T06:15:22;6.18;;;5.57;;
27618;SDS011;15039;50.830;4.730;2023-06-10T06:17:48;5.50;;;4.93;;
27618;SDS011;15039;50.830;4.730;2023-06-10T06:20:13;9.48;;;5.50;;
27618;SDS011;15039;50.830;4.730;2023-06-10T06:22:39;8.60;;;5.38;;
27618;SDS011;15039;50.830;4.730;2023-06-10T06:25:07;13.43;;;5.72;;
27618;SDS011;15039;50.830;4.730;2023-06-10T06:27:34;9.60;;;5.57;;
27618;SDS011;15039;50.830;4.730;2023-06-10T06:29:59;6.63;;;4.97;;
27618;SDS011;15039;50.830;4.730;2023-06-10T06:32:25;8.77;;;5.40;;
27618;SDS011;15039;50.830;4.730;2023-06-10T06:34:52;6.50;;;5.38;;
27618;SDS011;15039;50.830;4.730;2023-06-10T06:37:22;8.80;;;5.25;;
27618;SDS011;15039;50.830;4.730;2023-06-10T06:39:50;11.02;;;5.50;;
27618;SDS011;15039;50.830;4.730;2023-06-10T06:42:16;5.70;;;5.03;;
27618;SDS011;15039;50.830;4.730;2023-06-10T06:44:42;6.05;;;4.82;;
27618;SDS011;15039;50.830;4.730;2023-06-10T06:47:09;6.45;;;5.15;;
27618;SDS011;15039;50.830;4.730;2023-06-10T06:49:35;5.28;;;4.78;;
27618;SDS011;15039;50.830;4.730;2023-06-10T06:52:01;9.57;;;5.28;;
27618;SDS011;15039;50.830;4.730;2023-06-10T06:54:27;6.25;;;4.72;;
27618;SDS011;15039;50.830;4.730;2023-06-10T06:56:52;5.70;;;5.10;;
27618;SDS011;15039;50.830;4.730;2023-06-10T06:59:18;11.48;;;5.60;;
27618;SDS011;15039;50.830;4.730;2023-06-10T07:01:44;7.40;;;5.55;;
27618;SDS011;15039;50.830;4.730;2023-06-10T07:04:11;6.07;;;5.07;;
27618;SDS011;15039;50.830;4.730;2023-06-10T07:06:37;5.28;;;4.75;;
27618;SDS011;15039;50.830;4.730;2023-06-10T07:09:03;6.03;;;5.43;;
27618;SDS011;15039;50.830;4.730;2023-06-10T07:11:29;5.35;;;4.85;;
27618;SDS011;15039;50.830;4.730;2023-06-10T07:16:24;9.48;;;5.15;;
27618;SDS011;15039;50.830;4.730;2023-06-10T07:18:49;6.45;;;5.55;;
27618;SDS011;15039;50.830;4.730;2023-06-10T07:21:15;6.10;;;4.43;;
27618;SDS011;15039;50.830;4.730;2023-06-10T07:23:44;9.23;;;4.53;;
27618;SDS011;15039;50.830;4.730;2023-06-10T07:26:10;6.82;;;4.70;;
27618;SDS011;15039;50.830;4.730;2023-06-10T07:28:36;5.95;;;4.85;;
27618;SDS011;15039;50.830;4.730;2023-06-10T07:31:02;8.93;;;5.00;;
27618;SDS011;15039;50.830;4.730;2023-06-10T07:33:28;5.15;;;4.65;;
27618;SDS011;15039;50.830;4.730;2023-06-10T07:35:54;9.65;;;5.22;;
27618;SDS011;15039;50.830;4.730;2023-06-10T07:38:20;11.20;;;5.03;;
27618;SDS011;15039;50.830;4.730;2023-06-10T07:40:46;7.93;;;4.60;;
27618;SDS011;15039;50.830;4.730;2023-06-10T07:43:11;5.13;;;4.55;;
27618;SDS011;15039;50.830;4.730;2023-06-10T07:45:39;5.20;;;4.40;;
27618;SDS011;15039;50.830;4.730;2023-06-10T07:48:06;5.03;;;4.40;;
27618;SDS011;15039;50.830;4.730;2023-06-10T07:50:33;5.28;;;4.03;;
27618;SDS011;15039;50.830;4.730;2023-06-10T07:52:58;8.00;;;4.18;;
27618;SDS011;15039;50.830;4.730;2023-06-10T07:55:24;6.35;;;4.75;;
27618;SDS011;15039;50.830;4.730;2023-06-10T07:57:51;8.45;;;3.88;;
27618;SDS011;15039;50.830;4.730;2023-06-10T08:00:18;6.22;;;4.47;;
27618;SDS011;15039;50.830;4.730;2023-06-10T08:02:43;5.70;;;3.88;;
27618;SDS011;15039;50.830;4.730;2023-06-10T08:05:12;5.90;;;3.63;;
27618;SDS011;15039;50.830;4.730;2023-06-10T08:07:39;7.05;;;4.20;;
27618;SDS011;15039;50.830;4.730;2023-06-10T08:10:05;4.78;;;4.20;;
27618;SDS011;15039;50.830;4.730;2023-06-10T08:12:32;6.13;;;4.20;;
27618;SDS011;15039;50.830;4.730;2023-06-10T08:14:58;5.30;;;3.65;;
27618;SDS011;15039;50.830;4.730;2023-06-10T08:17:24;4.63;;;4.13;;
27618;SDS011;15039;50.830;4.730;2023-06-10T08:19:52;4.68;;;3.97;;
27618;SDS011;15039;50.830;4.730;2023-06-10T08:22:17;8.57;;;4.00;;
27618;SDS011;15039;50.830;4.730;2023-06-10T08:24:43;4.82;;;3.70;;
27618;SDS011;15039;50.830;4.730;2023-06-10T08:27:09;4.75;;;4.28;;
27618;SDS011;15039;50.830;4.730;2023-06-10T08:29:35;7.72;;;3.75;;
27618;SDS011;15039;50.830;4.730;2023-06-10T08:32:01;5.15;;;4.03;;
27618;SDS011;15039;50.830;4.730;2023-06-10T08:34:27;4.60;;;3.58;;
27618;SDS011;15039;50.830;4.730;2023-06-10T08:36:52;5.95;;;3.72;;
27618;SDS011;15039;50.830;4.730;2023-06-10T08:39:20;4.00;;;3.55;;
27618;SDS011;15039;50.830;4.730;2023-06-10T08:44:32;4.72;;;3.65;;
27618;SDS011;15039;50.830;4.730;2023-06-10T08:47:06;4.10;;;3.08;;
27618;SDS011;15039;50.830;4.730;2023-06-10T08:49:45;5.82;;;3.70;;
27618;SDS011;15039;50.830;4.730;2023-06-10T08:52:19;8.80;;;3.58;;
27618;SDS011;15039;50.830;4.730;2023-06-10T08:54:49;3.97;;;3.67;;
27618;SDS011;15039;50.830;4.730;2023-06-10T08:57:19;5.45;;;3.63;;
27618;SDS011;15039;50.830;4.730;2023-06-10T08:59:47;3.45;;;3.13;;
27618;SDS011;15039;50.830;4.730;2023-06-10T09:02:13;8.38;;;3.10;;
27618;SDS011;15039;50.830;4.730;2023-06-10T09:04:41;3.97;;;3.20;;
27618;SDS011;15039;50.830;4.730;2023-06-10T09:07:11;5.07;;;3.80;;
27618;SDS011;15039;50.830;4.730;2023-06-10T09:09:42;4.18;;;3.60;;
27618;SDS011;15039;50.830;4.730;2023-06-10T09:12:08;9.30;;;4.05;;
27618;SDS011;15039;50.830;4.730;2023-06-10T09:14:34;4.47;;;3.45;;
27618;SDS011;15039;50.830;4.730;2023-06-10T09:17:00;6.57;;;3.90;;
27618;SDS011;15039;50.830;4.730;2023-06-10T09:19:27;5.05;;;3.45;;
27618;SDS011;15039;50.830;4.730;2023-06-10T09:21:55;4.05;;;3.67;;
27618;SDS011;15039;50.830;4.730;2023-06-10T09:24:24;3.97;;;3.50;;
27618;SDS011;15039;50.830;4.730;2023-06-10T09:27:01;4.00;;;3.30;;
27618;SDS011;15039;50.830;4.730;2023-06-10T09:29:31;6.32;;;3.28;;
27618;SDS011;15039;50.830;4.730;2023-06-10T09:32:21;4.53;;;3.30;;
27618;SDS011;15039;50.830;4.730;2023-06-10T09:34:47;5.80;;;3.53;;
27618;SDS011;15039;50.830;4.730;2023-06-10T09:37:13;4.88;;;3.47;;
27618;SDS011;15039;50.830;4.730;2023-06-10T09:40:02;4.75;;;3.22;;
27618;SDS011;15039;50.830;4.730;2023-06-10T09:42:32;6.43;;;3.75;;
27618;SDS011;15039;50.830;4.730;2023-06-10T09:45:00;5.00;;;3.65;;
27618;SDS011;15039;50.830;4.730;2023-06-10T09:47:26;5.20;;;3.95;;
27618;SDS011;15039;50.830;4.730;2023-06-10T09:49:52;6.75;;;3.63;;
27618;SDS011;15039;50.830;4.730;2023-06-10T09:52:25;4.28;;;3.58;;
27618;SDS011;15039;50.830;4.730;2023-06-10T09:54:53;4.65;;;3.70;;
27618;SDS011;15039;50.830;4.730;2023-06-10T09:57:24;7.57;;;4.20;;
27618;SDS011;15039;50.830;4.730;2023-06-10T09:59:53;5.80;;;3.65;;
27618;SDS011;15039;50.830;4.730;2023-06-10T10:02:19;5.25;;;3.85;;
27618;SDS011;15039;50.830;4.730;2023-06-10T10:04:45;4.60;;;3.60;;
27618;SDS011;15039;50.830;4.730;2023-06-10T10:07:11;5.07;;;3.95;;
27618;SDS011;15039;50.830;4.730;2023-06-10T10:09:40;5.82;;;3.30;;
27618;SDS011;15039;50.830;4.730;2023-06-10T10:12:10;4.30;;;3.90;;
27618;SDS011;15039;50.830;4.730;2023-06-10T10:14:37;5.45;;;3.50;;
27618;SDS011;15039;50.830;4.730;2023-06-10T10:17:04;4.10;;;3.70;;
27618;SDS011;15039;50.830;4.730;2023-06-10T10:19:33;4.55;;;3.60;;
27618;SDS011;15039;50.830;4.730;2023-06-10T10:22:07;4.00;;;3.53;;
27618;SDS011;15039;50.830;4.730;2023-06-10T10:24:37;4.07;;;3.45;;
27618;SDS011;15039;50.830;4.730;2023-06-10T10:27:18;5.22;;;3.90;;
27618;SDS011;15039;50.830;4.730;2023-06-10T10:29:50;6.28;;;4.13;;
27618;SDS011;15039;50.830;4.730;2023-06-10T10:32:18;7.35;;;3.65;;
27618;SDS011;15039;50.830;4.730;2023-06-10T10:35:12;5.22;;;3.90;;
27618;SDS011;15039;50.830;4.730;2023-06-10T10:37:44;4.18;;;3.78;;
27618;SDS011;15039;50.830;4.730;2023-06-10T10:40:10;4.85;;;3.90;;
27618;SDS011;15039;50.830;4.730;2023-06-10T10:42:37;5.97;;;3.88;;
27618;SDS011;15039;50.830;4.730;2023-06-10T10:45:04;6.57;;;3.40;;
27618;SDS011;15039;50.830;4.730;2023-06-10T10:47:31;3.53;;;3.22;;
27618;SDS011;15039;50.830;4.730;2023-06-10T10:49:58;3.53;;;3.20;;
27618;SDS011;15039;50.830;4.730;2023-06-10T10:52:24;3.85;;;3.22;;
27618;SDS011;15039;50.830;4.730;2023-06-10T10:54:50;3.90;;;3.22;;
27618;SDS011;15039;50.830;4.730;2023-06-10T10:57:19;5.57;;;3.95;;
27618;SDS011;15039;50.830;4.730;2023-06-10T11:02:36;3.53;;;3.22;;
27618;SDS011;15039;50.830;4.730;2023-06-10T11:05:03;4.05;;;3.13;;
27618;SDS011;15039;50.830;4.730;2023-06-10T11:07:34;8.18;;;3.17;;
27618;SDS011;15039;50.830;4.730;2023-06-10T11:10:11;4.35;;;3.30;;
27618;SDS011;15039;50.830;4.730;2023-06-10T11:15:10;9.00;;;4.25;;
27618;SDS011;15039;50.830;4.730;2023-06-10T11:17:36;5.18;;;3.70;;
27618;SDS011;15039;50.830;4.730;2023-06-10T11:20:02;4.78;;;4.38;;
27618;SDS011;15039;50.830;4.730;2023-06-10T11:22:28;4.15;;;3.13;;
27618;SDS011;15039;50.830;4.730;2023-06-10T11:24:54;5.30;;;3.42;;
27618;SDS011;15039;50.830;4.730;2023-06-10T11:27:21;4.10;;;3.13;;
27618;SDS011;15039;50.830;4.730;2023-06-10T11:32:21;6.28;;;3.10;;
27618;SDS011;15039;50.830;4.730;2023-06-10T11:34:52;6.03;;;3.00;;
27618;SDS011;15039;50.830;4.730;2023-06-10T11:37:18;4.63;;;3.35;;
27618;SDS011;15039;50.830;4.730;2023-06-10T11:39:43;4.95;;;3.30;;
27618;SDS011;15039;50.830;4.730;2023-06-10T11:42:10;4.47;;;2.75;;
27618;SDS011;15039;50.830;4.730;2023-06-10T11:44:36;5.57;;;3.20;;
27618;SDS011;15039;50.830;4.730;2023-06-10T11:47:02;3.70;;;3.22;;
27618;SDS011;15039;50.830;4.730;2023-06-10T11:49:28;4.00;;;3.13;;
27618;SDS011;15039;50.830;4.730;2023-06-10T11:51:54;3.45;;;3.05;;
27618;SDS011;15039;50.830;4.730;2023-06-10T11:54:20;3.67;;;3.38;;
27618;SDS011;15039;50.830;4.730;2023-06-10T11:56:47;5.82;;;3.05;;
27618;SDS011;15039;50.830;4.730;2023-06-10T11:59:15;8.40;;;3.30;;
27618;SDS011;15039;50.830;4.730;2023-06-10T12:01:44;5.82;;;3.10;;
27618;SDS011;15039;50.830;4.730;2023-06-10T12:04:11;3.92;;;3.63;;
27618;SDS011;15039;50.830;4.730;2023-06-10T12:06:41;4.90;;;3.33;;
27618;SDS011;15039;50.830;4.730;2023-06-10T12:09:27;4.90;;;4.35;;
27618;SDS011;15039;50.830;4.730;2023-06-10T12:17:24;4.05;;;3.13;;
27618;SDS011;15039;50.830;4.730;2023-06-10T12:22:38;3.15;;;2.88;;
27618;SDS011;15039;50.830;4.730;2023-06-10T12:25:08;4.72;;;3.58;;
27618;SDS011;15039;50.830;4.730;2023-06-10T12:27:35;4.18;;;3.20;;
27618;SDS011;15039;50.830;4.730;2023-06-10T12:30:02;3.88;;;3.13;;
27618;SDS011;15039;50.830;4.730;2023-06-10T12:32:44;3.92;;;2.92;;
27618;SDS011;15039;50.830;4.730;2023-06-10T12:35:11;3.20;;;2.90;;
27618;SDS011;15039;50.830;4.730;2023-06-10T12:37:39;3.35;;;2.90;;
27618;SDS011;15039;50.830;4.730;2023-06-10T12:40:06;4.68;;;3.20;;
27618;SDS011;15039;50.830;4.730;2023-06-10T12:45:01;6.60;;;3.53;;
27618;SDS011;15039;50.830;4.730;2023-06-10T12:47:30;3.50;;;3.05;;
27618;SDS011;15039;50.830;4.730;2023-06-10T12:50:01;6.78;;;2.75;;
27618;SDS011;15039;50.830;4.730;2023-06-10T12:52:27;5.70;;;3.10;;
27618;SDS011;15039;50.830;4.730;2023-06-10T12:54:53;6.32;;;2.88;;
27618;SDS011;15039;50.830;4.730;2023-06-10T12:57:20;3.20;;;2.90;;
27618;SDS011;15039;50.830;4.730;2023-06-10T12:59:46;12.05;;;3.92;;
27618;SDS011;15039;50.830;4.730;2023-06-10T13:02:17;4.22;;;3.22;;
27618;SDS011;15039;50.830;4.730;2023-06-10T13:04:46;5.18;;;2.97;;
27618;SDS011;15039;50.830;4.730;2023-06-10T13:07:12;6.57;;;3.80;;
27618;SDS011;15039;50.830;4.730;2023-06-10T13:09:38;3.85;;;3.30;;
27618;SDS011;15039;50.830;4.730;2023-06-10T13:12:04;6.35;;;3.22;;
27618;SDS011;15039;50.830;4.730;2023-06-10T13:14:30;3.70;;;3.00;;
27618;SDS011;15039;50.830;4.730;2023-06-10T13:16:56;8.63;;;3.28;;
27618;SDS011;15039;50.830;4.730;2023-06-10T13:19:21;4.88;;;3.30;;
27618;SDS011;15039;50.830;4.730;2023-06-10T13:21:47;4.20;;;3.03;;
27618;SDS011;15039;50.830;4.730;2023-06-10T13:24:13;6.35;;;3.20;;
27618;SDS011;15039;50.830;4.730;2023-06-10T13:26:39;4.22;;;3.33;;
27618;SDS011;15039;50.830;4.730;2023-06-10T13:29:04;3.40;;;3.08;;
27618;SDS011;15039;50.830;4.730;2023-06-10T13:31:30;5.13;;;2.85;;
27618;SDS011;15039;50.830;4.730;2023-06-10T13:33:57;6.32;;;3.35;;
27618;SDS011;15039;50.830;4.730;2023-06-10T13:36:23;4.25;;;3.47;;
27618;SDS011;15039;50.830;4.730;2023-06-10T13:38:49;6.43;;;2.97;;
27618;SDS011;15039;50.830;4.730;2023-06-10T13:41:15;4.13;;;3.45;;
27618;SDS011;15039;50.830;4.730;2023-06-10T13:43:40;4.38;;;3.42;;
27618;SDS011;15039;50.830;4.730;2023-06-10T13:46:06;4.00;;;3.17;;
27618;SDS011;15039;50.830;4.730;2023-06-10T13:48:32;6.18;;;3.20;;
27618;SDS011;15039;50.830;4.730;2023-06-10T13:50:58;4.18;;;3.22;;
27618;SDS011;15039;50.830;4.730;2023-06-10T13:53:25;3.25;;;2.90;;
27618;SDS011;15039;50.830;4.730;2023-06-10T13:55:50;4.07;;;3.30;;
27618;SDS011;15039;50.830;4.730;2023-06-10T13:58:16;5.63;;;3.50;;
27618;SDS011;15039;50.830;4.730;2023-06-10T14:00:42;7.50;;;3.30;;
27618;SDS011;15039;50.830;4.730;2023-06-10T14:03:07;3.78;;;3.40;;
27618;SDS011;15039;50.830;4.730;2023-06-10T14:05:33;5.43;;;3.50;;
27618;SDS011;15039;50.830;4.730;2023-06-10T14:07:59;6.93;;;3.33;;
27618;SDS011;15039;50.830;4.730;2023-06-10T14:10:25;4.32;;;3.20;;
27618;SDS011;15039;50.830;4.730;2023-06-10T14:12:51;5.32;;;3.38;;
27618;SDS011;15039;50.830;4.730;2023-06-10T14:15:17;5.53;;;3.38;;
27618;SDS011;15039;50.830;4.730;2023-06-10T14:17:42;4.43;;;3.15;;
27618;SDS011;15039;50.830;4.730;2023-06-10T14:20:08;3.00;;;2.80;;
27618;SDS011;15039;50.830;4.730;2023-06-10T14:22:34;3.65;;;3.00;;
27618;SDS011;15039;50.830;4.730;2023-06-10T14:25:00;5.75;;;2.90;;
27618;SDS011;15039;50.830;4.730;2023-06-10T14:27:25;5.63;;;3.20;;
27618;SDS011;15039;50.830;4.730;2023-06-10T14:29:51;3.83;;;3.10;;
27618;SDS011;15039;50.830;4.730;2023-06-10T14:32:17;3.15;;;2.83;;
27618;SDS011;15039;50.830;4.730;2023-06-10T14:34:42;4.03;;;2.90;;
27618;SDS011;15039;50.830;4.730;2023-06-10T14:37:09;4.03;;;3.25;;
27618;SDS011;15039;50.830;4.730;2023-06-10T14:39:36;3.53;;;3.22;;
27618;SDS011;15039;50.830;4.730;2023-06-10T14:42:02;5.05;;;3.10;;
27618;SDS011;15039;50.830;4.730;2023-06-10T14:44:28;3.33;;;3.03;;
27618;SDS011;15039;50.830;4.730;2023-06-10T14:46:54;4.38;;;3.10;;
27618;SDS011;15039;50.830;4.730;2023-06-10T14:49:20;6.18;;;3.20;;
27618;SDS011;15039;50.830;4.730;2023-06-10T14:51:45;3.58;;;3.28;;
27618;SDS011;15039;50.830;4.730;2023-06-10T14:54:13;5.75;;;3.17;;
27618;SDS011;15039;50.830;4.730;2023-06-10T14:56:38;5.97;;;3.85;;
27618;SDS011;15039;50.830;4.730;2023-06-10T14:59:04;5.72;;;3.25;;
27618;SDS011;15039;50.830;4.730;2023-06-10T15:01:29;5.03;;;3.17;;
27618;SDS011;15039;50.830;4.730;2023-06-10T15:03:55;3.45;;;3.15;;
27618;SDS011;15039;50.830;4.730;2023-06-10T15:06:21;4.65;;;3.05;;
27618;SDS011;15039;50.830;4.730;2023-06-10T15:08:47;4.00;;;3.40;;
27618;SDS011;15039;50.830;4.730;2023-06-10T15:11:14;3.47;;;3.05;;
27618;SDS011;15039;50.830;4.730;2023-06-10T15:13:40;5.28;;;3.28;;
27618;SDS011;15039;50.830;4.730;2023-06-10T15:16:06;29.30;;;4.53;;
27618;SDS011;15039;50.830;4.730;2023-06-10T15:18:32;5.10;;;3.25;;
27618;SDS011;15039;50.830;4.730;2023-06-10T15:20:58;4.68;;;3.53;;
27618;SDS011;15039;50.830;4.730;2023-06-10T15:23:25;5.45;;;3.00;;